sensor_id;sensor_type;location;lat;lon;timestamp;pressure;altitude;pressure_sealevel;temperature;humidity
55912;BME280;41823;45.534;-73.332;2022-09-23T00:01:02;99925.76;;;27.75;18.15
55912;BME280;41823;45.534;-73.332;2022-09-23T00:03:31;99936.67;;;27.67;18.44
55912;BME280;41823;45.534;-73.332;2022-09-23T00:06:00;99938.57;;;27.90;18.16
55912;BME280;41823;45.534;-73.332;2022-09-23T00:08:29;99940.78;;;27.63;18.45
55912;BME280;41823;45.534;-73.332;2022-09-23T00:10:58;99949.68;;;27.88;17.99
55912;BME280;41823;45.534;-73.332;2022-09-23T00:13:30;99959.66;;;27.79;17.97
55912;BME280;41823;45.534;-73.332;2022-09-23T00:16:02;99966.14;;;27.84;18.03
55912;BME280;41823;45.534;-73.332;2022-09-23T00:18:30;99971.49;;;27.79;18.05
55912;BME280;41823;45.534;-73.332;2022-09-23T00:21:02;99987.39;;;27.92;17.86
55912;BME280;41823;45.534;-73.332;2022-09-23T00:23:36;99992.99;;;27.73;17.88
55912;BME280;41823;45.534;-73.332;2022-09-23T00:26:06;100001.99;;;27.98;17.54
55912;BME280;41823;45.534;-73.332;2022-09-23T00:28:39;100002.40;;;27.96;17.50
55912;BME280;41823;45.534;-73.332;2022-09-23T00:31:09;100007.06;;;27.72;17.55
55912;BME280;41823;45.534;-73.332;2022-09-23T00:33:37;100010.77;;;27.96;17.29
55912;BME280;41823;45.534;-73.332;2022-09-23T00:36:08;100017.44;;;27.97;17.35
55912;BME280;41823;45.534;-73.332;2022-09-23T00:38:36;100021.43;;;27.62;17.37
55912;BME280;41823;45.534;-73.332;2022-09-23T00:41:04;100030.18;;;27.73;17.33
55912;BME280;41823;45.534;-73.332;2022-09-23T00:43:41;100037.59;;;28.04;17.09
55912;BME280;41823;45.534;-73.332;2022-09-23T00:46:14;100043.59;;;27.56;17.34
55912;BME280;41823;45.534;-73.332;2022-09-23T00:48:44;100042.03;;;27.72;17.10
55912;BME280;41823;45.534;-73.332;2022-09-23T00:51:16;100048.67;;;27.93;17.15
55912;BME280;41823;45.534;-73.332;2022-09-23T00:53:48;100055.46;;;28.29;17.11
55912;BME280;41823;45.534;-73.332;2022-09-23T00:56:19;100057.99;;;28.07;17.09
55912;BME280;41823;45.534;-73.332;2022-09-23T00:58:51;100058.65;;;27.93;17.22
55912;BME280;41823;45.534;-73.332;2022-09-23T01:01:20;100062.50;;;27.92;17.22
55912;BME280;41823;45.534;-73.332;2022-09-23T01:03:48;100072.35;;;27.84;17.33
55912;BME280;41823;45.534;-73.332;2022-09-23T01:06:17;100080.62;;;27.42;17.37
55912;BME280;41823;45.534;-73.332;2022-09-23T01:08:51;100081.04;;;27.68;17.33
55912;BME280;41823;45.534;-73.332;2022-09-23T01:11:34;100080.07;;;27.76;17.10
55912;BME280;41823;45.534;-73.332;2022-09-23T01:14:31;100080.75;;;27.72;16.98
55912;BME280;41823;45.534;-73.332;2022-09-23T01:17:13;100095.31;;;27.77;16.81
55912;BME280;41823;45.534;-73.332;2022-09-23T01:19:58;100095.74;;;27.82;16.71
55912;BME280;41823;45.534;-73.332;2022-09-23T01:22:34;100108.90;;;27.97;16.84
55912;BME280;41823;45.534;-73.332;2022-09-23T01:25:49;100108.57;;;27.57;16.94
55912;BME280;41823;45.534;-73.332;2022-09-23T01:28:34;100115.34;;;27.82;16.57
55912;BME280;41823;45.534;-73.332;2022-09-23T01:31:14;100115.59;;;27.78;16.65
55912;BME280;41823;45.534;-73.332;2022-09-23T01:33:53;100113.35;;;27.66;16.69
55912;BME280;41823;45.534;-73.332;2022-09-23T01:36:27;100122.48;;;27.63;16.71
55912;BME280;41823;45.534;-73.332;2022-09-23T01:39:06;100118.07;;;27.40;16.75
55912;BME280;41823;45.534;-73.332;2022-09-23T01:41:48;100119.21;;;27.66;16.48
55912;BME280;41823;45.534;-73.332;2022-09-23T01:44:21;100119.14;;;27.95;16.28
55912;BME280;41823;45.534;-73.332;2022-09-23T01:46:54;100131.02;;;27.56;16.18
55912;BME280;41823;45.534;-73.332;2022-09-23T01:49:30;100130.46;;;27.99;16.10
55912;BME280;41823;45.534;-73.332;2022-09-23T01:52:07;100133.41;;;27.82;15.97
55912;BME280;41823;45.534;-73.332;2022-09-23T01:54:42;100135.94;;;27.49;16.05
55912;BME280;41823;45.534;-73.332;2022-09-23T01:57:17;100134.45;;;27.42;15.97
55912;BME280;41823;45.534;-73.332;2022-09-23T01:59:52;100143.76;;;27.37;16.01
55912;BME280;41823;45.534;-73.332;2022-09-23T02:02:25;100146.99;;;27.10;16.16
55912;BME280;41823;45.534;-73.332;2022-09-23T02:05:02;100148.80;;;27.41;15.95
55912;BME280;41823;45.534;-73.332;2022-09-23T02:07:36;100152.04;;;27.46;15.80
55912;BME280;41823;45.534;-73.332;2022-09-23T02:10:11;100150.01;;;27.36;15.82
55912;BME280;41823;45.534;-73.332;2022-09-23T02:12:43;100151.28;;;27.38;15.94
55912;BME280;41823;45.534;-73.332;2022-09-23T02:15:14;100154.96;;;27.47;15.91
55912;BME280;41823;45.534;-73.332;2022-09-23T02:17:47;100159.69;;;27.60;15.99
55912;BME280;41823;45.534;-73.332;2022-09-23T02:20:20;100162.78;;;28.18;15.66
55912;BME280;41823;45.534;-73.332;2022-09-23T02:22:55;100164.55;;;27.96;15.74
55912;BME280;41823;45.534;-73.332;2022-09-23T02:25:30;100166.29;;;28.03;15.80
55912;BME280;41823;45.534;-73.332;2022-09-23T02:28:09;100170.10;;;27.84;16.25
55912;BME280;41823;45.534;-73.332;2022-09-23T02:30:45;100177.65;;;27.87;16.10
55912;BME280;41823;45.534;-73.332;2022-09-23T02:33:20;100183.26;;;27.88;15.93
55912;BME280;41823;45.534;-73.332;2022-09-23T02:35:54;100186.62;;;27.90;16.11
55912;BME280;41823;45.534;-73.332;2022-09-23T02:38:30;100184.99;;;27.99;16.21
55912;BME280;41823;45.534;-73.332;2022-09-23T02:41:06;100189.64;;;27.94;16.21
55912;BME280;41823;45.534;-73.332;2022-09-23T02:43:44;100185.33;;;27.79;16.31
55912;BME280;41823;45.534;-73.332;2022-09-23T02:46:14;100182.82;;;27.80;16.23
55912;BME280;41823;45.534;-73.332;2022-09-23T02:48:47;100177.19;;;27.72;16.66
55912;BME280;41823;45.534;-73.332;2022-09-23T02:51:16;100183.45;;;27.68;16.45
55912;BME280;41823;45.534;-73.332;2022-09-23T02:53:44;100185.96;;;28.30;16.14
55912;BME280;41823;45.534;-73.332;2022-09-23T02:56:18;100183.21;;;28.17;16.28
55912;BME280;41823;45.534;-73.332;2022-09-23T02:58:48;100191.26;;;27.93;16.27
55912;BME280;41823;45.534;-73.332;2022-09-23T03:01:27;100189.95;;;27.76;16.22
55912;BME280;41823;45.534;-73.332;2022-09-23T03:04:03;100191.62;;;27.95;16.15
55912;BME280;41823;45.534;-73.332;2022-09-23T03:06:42;100195.11;;;27.69;16.31
55912;BME280;41823;45.534;-73.332;2022-09-23T03:09:20;100197.42;;;28.15;16.36
55912;BME280;41823;45.534;-73.332;2022-09-23T03:11:52;100197.17;;;28.21;16.42
55912;BME280;41823;45.534;-73.332;2022-09-23T03:14:27;100201.84;;;27.86;16.38
55912;BME280;41823;45.534;-73.332;2022-09-23T03:17:02;100201.49;;;27.69;16.50
55912;BME280;41823;45.534;-73.332;2022-09-23T03:19:33;100202.25;;;27.75;16.44
55912;BME280;41823;45.534;-73.332;2022-09-23T03:22:07;100207.70;;;27.90;16.56
55912;BME280;41823;45.534;-73.332;2022-09-23T03:24:38;100204.85;;;27.98;16.21
55912;BME280;41823;45.534;-73.332;2022-09-23T03:27:12;100205.41;;;27.65;16.54
55912;BME280;41823;45.534;-73.332;2022-09-23T03:29:43;100200.37;;;27.93;16.18
55912;BME280;41823;45.534;-73.332;2022-09-23T03:32:12;100206.08;;;27.67;15.90
55912;BME280;41823;45.534;-73.332;2022-09-23T03:34:43;100206.91;;;28.01;15.84
55912;BME280;41823;45.534;-73.332;2022-09-23T03:37:16;100210.46;;;27.63;16.12
55912;BME280;41823;45.534;-73.332;2022-09-23T03:39:49;100208.70;;;27.92;16.33
55912;BME280;41823;45.534;-73.332;2022-09-23T03:42:22;100206.88;;;28.11;16.15
55912;BME280;41823;45.534;-73.332;2022-09-23T03:44:53;100208.77;;;27.37;16.74
55912;BME280;41823;45.534;-73.332;2022-09-23T03:47:23;100215.24;;;27.60;16.80
55912;BME280;41823;45.534;-73.332;2022-09-23T03:49:52;100217.36;;;27.51;16.64
55912;BME280;41823;45.534;-73.332;2022-09-23T03:52:21;100220.16;;;27.52;16.90
55912;BME280;41823;45.534;-73.332;2022-09-23T03:54:50;100228.97;;;27.88;16.23
55912;BME280;41823;45.534;-73.332;2022-09-23T03:57:19;100223.71;;;27.75;16.34
55912;BME280;41823;45.534;-73.332;2022-09-23T03:59:47;100234.16;;;27.61;16.44
55912;BME280;41823;45.534;-73.332;2022-09-23T04:02:16;100239.98;;;27.63;16.30
55912;BME280;41823;45.534;-73.332;2022-09-23T04:04:45;100233.89;;;27.87;16.27
55912;BME280;41823;45.534;-73.332;2022-09-23T04:07:13;100236.72;;;27.57;16.82
55912;BME280;41823;45.534;-73.332;2022-09-23T04:09:42;100244.47;;;27.64;17.02
55912;BME280;41823;45.534;-73.332;2022-09-23T04:12:12;100246.87;;;27.67;17.31
55912;BME280;41823;45.534;-73.332;2022-09-23T04:14:41;100251.90;;;27.79;17.58
55912;BME280;41823;45.534;-73.332;2022-09-23T04:17:09;100259.49;;;27.93;17.44
55912;BME280;41823;45.534;-73.332;2022-09-23T04:19:37;100260.79;;;27.36;17.60
55912;BME280;41823;45.534;-73.332;2022-09-23T04:22:05;100264.37;;;27.71;17.93
55912;BME280;41823;45.534;-73.332;2022-09-23T04:24:33;100264.49;;;27.85;17.51
55912;BME280;41823;45.534;-73.332;2022-09-23T04:27:01;100271.02;;;27.58;17.50
55912;BME280;41823;45.534;-73.332;2022-09-23T04:29:29;100267.03;;;27.68;17.51
55912;BME280;41823;45.534;-73.332;2022-09-23T04:31:57;100274.41;;;27.72;17.45
55912;BME280;41823;45.534;-73.332;2022-09-23T04:34:25;100275.32;;;27.45;17.58
55912;BME280;41823;45.534;-73.332;2022-09-23T04:36:53;100268.43;;;27.35;17.33
55912;BME280;41823;45.534;-73.332;2022-09-23T04:39:21;100276.18;;;27.36;17.42
55912;BME280;41823;45.534;-73.332;2022-09-23T04:41:48;100282.55;;;27.42;17.68
55912;BME280;41823;45.534;-73.332;2022-09-23T04:44:16;100284.38;;;27.56;17.66
55912;BME280;41823;45.534;-73.332;2022-09-23T04:46:44;100284.44;;;27.73;17.55
55912;BME280;41823;45.534;-73.332;2022-09-23T04:49:13;100288.51;;;27.43;17.82
55912;BME280;41823;45.534;-73.332;2022-09-23T04:51:41;100293.29;;;27.17;17.89
55912;BME280;41823;45.534;-73.332;2022-09-23T04:54:09;100297.67;;;27.16;17.87
55912;BME280;41823;45.534;-73.332;2022-09-23T04:56:38;100298.69;;;27.47;17.90
55912;BME280;41823;45.534;-73.332;2022-09-23T04:59:06;100299.52;;;27.44;17.58
55912;BME280;41823;45.534;-73.332;2022-09-23T05:01:43;100301.23;;;27.56;17.82
55912;BME280;41823;45.534;-73.332;2022-09-23T05:04:11;100299.31;;;27.80;17.57
55912;BME280;41823;45.534;-73.332;2022-09-23T05:06:39;100300.99;;;27.47;17.65
55912;BME280;41823;45.534;-73.332;2022-09-23T05:09:08;100299.80;;;27.07;17.74
55912;BME280;41823;45.534;-73.332;2022-09-23T05:11:36;100306.83;;;27.01;17.83
55912;BME280;41823;45.534;-73.332;2022-09-23T05:14:06;100307.93;;;27.50;17.27
55912;BME280;41823;45.534;-73.332;2022-09-23T05:16:39;100307.44;;;27.29;17.32
55912;BME280;41823;45.534;-73.332;2022-09-23T05:19:07;100309.99;;;27.72;16.88
55912;BME280;41823;45.534;-73.332;2022-09-23T05:21:35;100313.52;;;27.36;17.18
55912;BME280;41823;45.534;-73.332;2022-09-23T05:24:03;100319.78;;;27.44;17.02
55912;BME280;41823;45.534;-73.332;2022-09-23T05:26:32;100321.35;;;27.45;16.97
55912;BME280;41823;45.534;-73.332;2022-09-23T05:28:59;100324.06;;;27.09;17.02
55912;BME280;41823;45.534;-73.332;2022-09-23T05:31:28;100327.76;;;27.44;16.87
55912;BME280;41823;45.534;-73.332;2022-09-23T05:33:57;100328.60;;;27.17;16.92
55912;BME280;41823;45.534;-73.332;2022-09-23T05:36:28;100336.27;;;27.64;16.80
55912;BME280;41823;45.534;-73.332;2022-09-23T05:38:56;100333.13;;;27.40;16.63
55912;BME280;41823;45.534;-73.332;2022-09-23T05:41:25;100333.13;;;27.23;16.60
55912;BME280;41823;45.534;-73.332;2022-09-23T05:43:54;100337.08;;;27.32;16.38
55912;BME280;41823;45.534;-73.332;2022-09-23T05:46:24;100340.02;;;27.48;16.11
55912;BME280;41823;45.534;-73.332;2022-09-23T05:48:54;100340.01;;;27.02;15.97
55912;BME280;41823;45.534;-73.332;2022-09-23T05:51:23;100346.74;;;27.53;15.81
55912;BME280;41823;45.534;-73.332;2022-09-23T05:53:53;100346.11;;;27.43;15.80
55912;BME280;41823;45.534;-73.332;2022-09-23T05:56:23;100343.87;;;27.15;15.80
55912;BME280;41823;45.534;-73.332;2022-09-23T05:58:52;100345.27;;;27.36;15.47
55912;BME280;41823;45.534;-73.332;2022-09-23T06:01:22;100349.69;;;27.42;15.65
55912;BME280;41823;45.534;-73.332;2022-09-23T06:03:51;100349.28;;;27.38;15.76
55912;BME280;41823;45.534;-73.332;2022-09-23T06:06:23;100349.97;;;27.32;15.91
55912;BME280;41823;45.534;-73.332;2022-09-23T06:08:52;100350.76;;;27.41;15.99
55912;BME280;41823;45.534;-73.332;2022-09-23T06:11:20;100355.36;;;27.32;15.87
55912;BME280;41823;45.534;-73.332;2022-09-23T06:13:48;100359.94;;;27.51;15.71
55912;BME280;41823;45.534;-73.332;2022-09-23T06:16:16;100358.09;;;27.30;15.74
55912;BME280;41823;45.534;-73.332;2022-09-23T06:18:44;100362.08;;;27.55;15.54
55912;BME280;41823;45.534;-73.332;2022-09-23T06:21:14;100362.27;;;27.24;15.64
55912;BME280;41823;45.534;-73.332;2022-09-23T06:23:43;100368.19;;;27.43;15.47
55912;BME280;41823;45.534;-73.332;2022-09-23T06:26:13;100372.13;;;27.50;15.30
55912;BME280;41823;45.534;-73.332;2022-09-23T06:28:43;100358.02;;;27.35;15.35
55912;BME280;41823;45.534;-73.332;2022-09-23T06:31:12;100362.12;;;27.40;15.48
55912;BME280;41823;45.534;-73.332;2022-09-23T06:33:41;100357.01;;;27.29;15.63
55912;BME280;41823;45.534;-73.332;2022-09-23T06:36:10;100355.18;;;27.50;15.67
55912;BME280;41823;45.534;-73.332;2022-09-23T06:38:40;100358.70;;;27.55;15.71
55912;BME280;41823;45.534;-73.332;2022-09-23T06:41:08;100353.03;;;27.56;15.39
55912;BME280;41823;45.534;-73.332;2022-09-23T06:43:36;100366.04;;;27.30;15.28
55912;BME280;41823;45.534;-73.332;2022-09-23T06:46:05;100369.77;;;27.22;15.35
55912;BME280;41823;45.534;-73.332;2022-09-23T06:48:32;100365.50;;;27.80;14.87
55912;BME280;41823;45.534;-73.332;2022-09-23T06:51:03;100371.90;;;27.32;14.99
55912;BME280;41823;45.534;-73.332;2022-09-23T06:53:31;100371.74;;;27.57;14.81
55912;BME280;41823;45.534;-73.332;2022-09-23T06:56:01;100372.58;;;27.07;14.88
55912;BME280;41823;45.534;-73.332;2022-09-23T06:58:30;100373.64;;;27.31;14.97
55912;BME280;41823;45.534;-73.332;2022-09-23T07:01:00;100370.69;;;27.18;15.00
55912;BME280;41823;45.534;-73.332;2022-09-23T07:03:28;100373.42;;;27.32;14.46
55912;BME280;41823;45.534;-73.332;2022-09-23T07:05:57;100377.64;;;27.62;14.25
55912;BME280;41823;45.534;-73.332;2022-09-23T07:08:26;100387.39;;;27.60;14.43
55912;BME280;41823;45.534;-73.332;2022-09-23T07:10:56;100392.08;;;27.55;14.32
55912;BME280;41823;45.534;-73.332;2022-09-23T07:13:25;100397.99;;;27.50;14.24
55912;BME280;41823;45.534;-73.332;2022-09-23T07:15:54;100392.04;;;27.11;14.29
55912;BME280;41823;45.534;-73.332;2022-09-23T07:18:22;100391.68;;;27.45;14.25
55912;BME280;41823;45.534;-73.332;2022-09-23T07:20:51;100389.15;;;27.46;14.35
55912;BME280;41823;45.534;-73.332;2022-09-23T07:23:19;100393.13;;;27.27;14.48
55912;BME280;41823;45.534;-73.332;2022-09-23T07:25:46;100390.00;;;27.65;14.30
55912;BME280;41823;45.534;-73.332;2022-09-23T07:28:14;100405.58;;;27.66;14.16
55912;BME280;41823;45.534;-73.332;2022-09-23T07:30:43;100404.53;;;27.37;14.21
55912;BME280;41823;45.534;-73.332;2022-09-23T07:33:11;100410.50;;;27.19;14.21
55912;BME280;41823;45.534;-73.332;2022-09-23T07:35:39;100413.45;;;27.37;14.28
55912;BME280;41823;45.534;-73.332;2022-09-23T07:38:08;100411.47;;;26.93;14.33
55912;BME280;41823;45.534;-73.332;2022-09-23T07:40:36;100407.04;;;27.32;14.18
55912;BME280;41823;45.534;-73.332;2022-09-23T07:43:04;100414.60;;;27.41;13.95
55912;BME280;41823;45.534;-73.332;2022-09-23T07:45:32;100422.52;;;27.68;14.04
55912;BME280;41823;45.534;-73.332;2022-09-23T07:48:01;100420.43;;;27.60;13.96
55912;BME280;41823;45.534;-73.332;2022-09-23T07:50:29;100429.94;;;27.49;14.35
55912;BME280;41823;45.534;-73.332;2022-09-23T07:52:57;100434.84;;;27.68;14.06
55912;BME280;41823;45.534;-73.332;2022-09-23T07:55:25;100437.40;;;27.48;14.31
55912;BME280;41823;45.534;-73.332;2022-09-23T07:57:52;100434.76;;;27.56;14.32
55912;BME280;41823;45.534;-73.332;2022-09-23T08:00:20;100441.13;;;27.60;14.64
55912;BME280;41823;45.534;-73.332;2022-09-23T08:02:48;100439.58;;;27.24;14.81
55912;BME280;41823;45.534;-73.332;2022-09-23T08:05:16;100439.90;;;27.46;15.04
55912;BME280;41823;45.534;-73.332;2022-09-23T08:07:44;100445.99;;;27.55;15.23
55912;BME280;41823;45.534;-73.332;2022-09-23T08:10:12;100447.80;;;27.47;14.61
55912;BME280;41823;45.534;-73.332;2022-09-23T08:12:40;100447.11;;;27.49;14.80
55912;BME280;41823;45.534;-73.332;2022-09-23T08:15:08;100446.41;;;27.42;14.85
55912;BME280;41823;45.534;-73.332;2022-09-23T08:17:37;100455.06;;;27.80;14.62
55912;BME280;41823;45.534;-73.332;2022-09-23T08:20:06;100461.40;;;27.41;14.73
55912;BME280;41823;45.534;-73.332;2022-09-23T08:22:33;100469.38;;;27.36;14.81
55912;BME280;41823;45.534;-73.332;2022-09-23T08:25:01;100470.08;;;27.24;14.70
55912;BME280;41823;45.534;-73.332;2022-09-23T08:27:29;100474.77;;;27.51;14.60
55912;BME280;41823;45.534;-73.332;2022-09-23T08:29:57;100475.65;;;27.51;14.49
55912;BME280;41823;45.534;-73.332;2022-09-23T08:32:26;100474.83;;;27.44;14.40
55912;BME280;41823;45.534;-73.332;2022-09-23T08:34:54;100480.96;;;27.25;14.05
55912;BME280;41823;45.534;-73.332;2022-09-23T08:37:22;100485.49;;;27.43;14.08
55912;BME280;41823;45.534;-73.332;2022-09-23T08:39:50;100487.26;;;27.65;13.85
55912;BME280;41823;45.534;-73.332;2022-09-23T08:42:24;100489.60;;;27.45;13.97
55912;BME280;41823;45.534;-73.332;2022-09-23T08:44:56;100489.45;;;27.51;14.62
55912;BME280;41823;45.534;-73.332;2022-09-23T08:47:29;100497.05;;;27.32;14.61
55912;BME280;41823;45.534;-73.332;2022-09-23T08:50:06;100508.62;;;27.36;14.74
55912;BME280;41823;45.534;-73.332;2022-09-23T08:52:40;100503.10;;;27.51;14.37
55912;BME280;41823;45.534;-73.332;2022-09-23T08:55:12;100508.90;;;27.63;14.37
55912;BME280;41823;45.534;-73.332;2022-09-23T08:57:48;100517.24;;;27.36;14.47
55912;BME280;41823;45.534;-73.332;2022-09-23T09:00:26;100517.16;;;27.91;14.29
55912;BME280;41823;45.534;-73.332;2022-09-23T09:02:57;100519.67;;;27.58;14.17
55912;BME280;41823;45.534;-73.332;2022-09-23T09:05:26;100518.98;;;27.56;14.18
55912;BME280;41823;45.534;-73.332;2022-09-23T09:07:57;100525.07;;;27.35;14.43
55912;BME280;41823;45.534;-73.332;2022-09-23T09:10:32;100528.57;;;27.22;14.69
55912;BME280;41823;45.534;-73.332;2022-09-23T09:13:04;100526.43;;;27.49;14.81
55912;BME280;41823;45.534;-73.332;2022-09-23T09:15:38;100532.43;;;27.34;14.85
55912;BME280;41823;45.534;-73.332;2022-09-23T09:18:14;100538.60;;;27.37;14.84
55912;BME280;41823;45.534;-73.332;2022-09-23T09:20:52;100540.95;;;27.37;14.49
55912;BME280;41823;45.534;-73.332;2022-09-23T09:23:30;100545.00;;;27.40;14.60
55912;BME280;41823;45.534;-73.332;2022-09-23T09:26:02;100553.00;;;27.59;14.43
55912;BME280;41823;45.534;-73.332;2022-09-23T09:28:37;100563.14;;;27.50;14.48
55912;BME280;41823;45.534;-73.332;2022-09-23T09:31:18;100566.95;;;27.24;14.96
55912;BME280;41823;45.534;-73.332;2022-09-23T09:33:52;100571.91;;;27.64;14.78
55912;BME280;41823;45.534;-73.332;2022-09-23T09:36:29;100572.41;;;27.66;14.95
55912;BME280;41823;45.534;-73.332;2022-09-23T09:38:58;100578.56;;;27.55;15.13
55912;BME280;41823;45.534;-73.332;2022-09-23T09:41:27;100589.92;;;27.18;14.97
55912;BME280;41823;45.534;-73.332;2022-09-23T09:43:56;100597.10;;;27.75;14.75
55912;BME280;41823;45.534;-73.332;2022-09-23T09:46:37;100597.94;;;27.32;15.02
55912;BME280;41823;45.534;-73.332;2022-09-23T09:49:15;100598.90;;;27.61;14.71
55912;BME280;41823;45.534;-73.332;2022-09-23T09:51:46;100606.67;;;27.51;14.91
55912;BME280;41823;45.534;-73.332;2022-09-23T09:54:19;100606.55;;;27.61;14.75
55912;BME280;41823;45.534;-73.332;2022-09-23T09:56:49;100610.42;;;27.42;14.72
55912;BME280;41823;45.534;-73.332;2022-09-23T09:59:20;100609.42;;;27.77;14.71
55912;BME280;41823;45.534;-73.332;2022-09-23T10:02:12;100609.29;;;26.98;14.88
55912;BME280;41823;45.534;-73.332;2022-09-23T10:04:40;100609.58;;;27.53;14.84
55912;BME280;41823;45.534;-73.332;2022-09-23T10:07:12;100611.41;;;27.62;14.71
55912;BME280;41823;45.534;-73.332;2022-09-23T10:09:48;100621.11;;;27.42;14.64
55912;BME280;41823;45.534;-73.332;2022-09-23T10:12:18;100624.75;;;27.77;14.61
55912;BME280;41823;45.534;-73.332;2022-09-23T10:14:47;100627.20;;;27.60;14.67
55912;BME280;41823;45.534;-73.332;2022-09-23T10:17:19;100636.90;;;27.57;14.58
55912;BME280;41823;45.534;-73.332;2022-09-23T10:19:49;100644.12;;;27.40;14.66
55912;BME280;41823;45.534;-73.332;2022-09-23T10:22:24;100648.00;;;27.65;14.74
55912;BME280;41823;45.534;-73.332;2022-09-23T10:24:55;100650.61;;;27.74;14.70
55912;BME280;41823;45.534;-73.332;2022-09-23T10:27:28;100658.59;;;27.60;14.81
55912;BME280;41823;45.534;-73.332;2022-09-23T10:29:58;100652.67;;;27.47;14.78
55912;BME280;41823;45.534;-73.332;2022-09-23T10:32:31;100659.25;;;27.55;14.79
55912;BME280;41823;45.534;-73.332;2022-09-23T10:35:11;100665.53;;;27.43;14.87
55912;BME280;41823;45.534;-73.332;2022-09-23T10:37:41;100675.32;;;27.86;14.69
55912;BME280;41823;45.534;-73.332;2022-09-23T10:40:16;100682.21;;;27.46;14.77
55912;BME280;41823;45.534;-73.332;2022-09-23T10:42:55;100683.38;;;27.79;14.77
55912;BME280;41823;45.534;-73.332;2022-09-23T10:45:26;100690.42;;;27.52;14.83
55912;BME280;41823;45.534;-73.332;2022-09-23T10:48:05;100697.63;;;27.75;14.81
55912;BME280;41823;45.534;-73.332;2022-09-23T10:50:38;100708.96;;;27.82;14.99
55912;BME280;41823;45.534;-73.332;2022-09-23T10:53:15;100705.33;;;27.13;15.15
55912;BME280;41823;45.534;-73.332;2022-09-23T10:55:58;100716.80;;;26.95;15.01
55912;BME280;41823;45.534;-73.332;2022-09-23T10:58:50;100720.24;;;27.44;14.85
55912;BME280;41823;45.534;-73.332;2022-09-23T11:01:32;100723.16;;;27.54;14.71
55912;BME280;41823;45.534;-73.332;2022-09-23T11:04:57;100723.57;;;27.58;14.68
55912;BME280;41823;45.534;-73.332;2022-09-23T11:07:38;100731.43;;;27.40;14.59
55912;BME280;41823;45.534;-73.332;2022-09-23T11:10:25;100736.30;;;27.44;14.56
55912;BME280;41823;45.534;-73.332;2022-09-23T11:13:03;100739.73;;;27.38;14.73
55912;BME280;41823;45.534;-73.332;2022-09-23T11:15:41;100741.63;;;27.76;14.69
55912;BME280;41823;45.534;-73.332;2022-09-23T11:19:25;100747.13;;;27.32;14.70
55912;BME280;41823;45.534;-73.332;2022-09-23T11:22:08;100761.05;;;27.61;14.55
55912;BME280;41823;45.534;-73.332;2022-09-23T11:25:01;100767.67;;;27.26;14.73
55912;BME280;41823;45.534;-73.332;2022-09-23T11:27:43;100775.00;;;27.27;14.48
55912;BME280;41823;45.534;-73.332;2022-09-23T11:30:16;100778.26;;;27.19;14.56
55912;BME280;41823;45.534;-73.332;2022-09-23T11:33:00;100772.95;;;27.72;14.26
55912;BME280;41823;45.534;-73.332;2022-09-23T11:35:36;100774.07;;;27.54;14.20
55912;BME280;41823;45.534;-73.332;2022-09-23T11:38:11;100774.66;;;27.20;14.55
55912;BME280;41823;45.534;-73.332;2022-09-23T11:40:43;100775.39;;;27.57;14.60
55912;BME280;41823;45.534;-73.332;2022-09-23T11:43:18;100774.29;;;27.48;14.48
55912;BME280;41823;45.534;-73.332;2022-09-23T11:45:52;100772.88;;;27.30;14.45
55912;BME280;41823;45.534;-73.332;2022-09-23T11:48:28;100776.46;;;27.40;14.16
55912;BME280;41823;45.534;-73.332;2022-09-23T11:50:59;100780.35;;;27.66;14.19
55912;BME280;41823;45.534;-73.332;2022-09-23T11:53:36;100780.36;;;27.51;14.29
55912;BME280;41823;45.534;-73.332;2022-09-23T11:56:12;100784.33;;;27.12;14.36
55912;BME280;41823;45.534;-73.332;2022-09-23T11:58:47;100781.34;;;27.35;14.39
55912;BME280;41823;45.534;-73.332;2022-09-23T12:01:22;100782.41;;;27.13;14.42
55912;BME280;41823;45.534;-73.332;2022-09-23T12:03:58;100784.45;;;27.65;14.25
55912;BME280;41823;45.534;-73.332;2022-09-23T12:06:37;100790.15;;;27.68;14.26
55912;BME280;41823;45.534;-73.332;2022-09-23T12:09:14;100789.90;;;27.60;14.39
55912;BME280;41823;45.534;-73.332;2022-09-23T12:11:52;100790.46;;;27.23;14.25
55912;BME280;41823;45.534;-73.332;2022-09-23T12:14:26;100779.77;;;27.57;14.07
55912;BME280;41823;45.534;-73.332;2022-09-23T12:17:12;100781.83;;;27.51;14.25
55912;BME280;41823;45.534;-73.332;2022-09-23T12:20:01;100783.11;;;27.15;14.83
55912;BME280;41823;45.534;-73.332;2022-09-23T12:22:42;100786.39;;;27.80;14.42
55912;BME280;41823;45.534;-73.332;2022-09-23T12:25:32;100792.75;;;27.69;14.16
55912;BME280;41823;45.534;-73.332;2022-09-23T12:28:03;100793.41;;;27.81;14.22
55912;BME280;41823;45.534;-73.332;2022-09-23T12:30:35;100791.11;;;27.59;14.36
55912;BME280;41823;45.534;-73.332;2022-09-23T12:33:09;100798.35;;;27.39;14.47
55912;BME280;41823;45.534;-73.332;2022-09-23T12:35:44;100796.33;;;27.28;14.12
55912;BME280;41823;45.534;-73.332;2022-09-23T12:38:13;100796.74;;;27.93;13.92
55912;BME280;41823;45.534;-73.332;2022-09-23T12:40:45;100798.42;;;27.60;14.09
55912;BME280;41823;45.534;-73.332;2022-09-23T12:43:18;100799.48;;;27.35;13.93
55912;BME280;41823;45.534;-73.332;2022-09-23T12:45:46;100797.33;;;27.52;13.63
55912;BME280;41823;45.534;-73.332;2022-09-23T12:49:22;100796.99;;;27.51;13.66
55912;BME280;41823;45.534;-73.332;2022-09-23T12:52:24;100800.58;;;27.70;13.72
55912;BME280;41823;45.534;-73.332;2022-09-23T12:54:56;100806.09;;;27.42;13.47
55912;BME280;41823;45.534;-73.332;2022-09-23T12:57:40;100801.47;;;27.61;13.25
55912;BME280;41823;45.534;-73.332;2022-09-23T13:00:25;100802.54;;;27.31;13.41